Time;durP1;ratioP1;P1;durP2;ratioP2;P2;SDS_P1;SDS_P2;PMS_P1;PMS_P2;Temp;Humidity;BMP_temperature;BMP_pressure;BME280_temperature;BME280_humidity;BME280_pressure;Samples;Min_cycle;Max_cycle;Signal;HPM_P1;HPM_P2
2022/08/15 00:00:41;;;;;;;2.88;2.50;;;;;;;22.81;54.69;94100.41;5057771;28;20044;-86
2022/08/15 00:03:21;;;;;;;4.47;2.65;;;;;;;24.23;54.50;94305.84;5054056;28;20047;-87
2022/08/15 00:05:47;;;;;;;3.80;3.13;;;;;;;23.95;54.18;94278.47;5069474;28;20132;-87
2022/08/15 00:08:12;;;;;;;4.13;3.13;;;;;;;24.20;54.77;94306.91;5072122;28;20111;-86
2022/08/15 00:10:38;;;;;;;4.05;3.42;;;;;;;23.90;54.85;94273.88;5059015;28;20032;-88
2022/08/15 00:13:14;;;;;;;3.88;3.13;;;;;;;23.00;54.75;94151.53;5059722;28;20044;-86
2022/08/15 00:15:41;;;;;;;4.22;3.38;;;;;;;23.71;54.89;94234.44;5058093;28;20126;-86
2022/08/15 00:18:06;;;;;;;4.85;3.40;;;;;;;24.12;54.96;94306.09;5050681;28;20110;-88
2022/08/15 00:20:34;;;;;;;3.80;3.40;;;;;;;24.28;54.85;94313.19;5055223;28;20032;-86
2022/08/15 00:22:59;;;;;;;5.13;3.55;;;;;;;22.50;54.93;94055.06;5056739;28;20016;-87
2022/08/15 00:25:25;;;;;;;4.47;3.35;;;;;;;23.46;54.47;94186.16;5074561;28;20497;-86
2022/08/15 00:27:51;;;;;;;3.85;3.10;;;;;;;22.39;54.49;94028.09;5059840;28;20035;-86
2022/08/15 00:30:16;;;;;;;4.07;3.45;;;;;;;23.70;55.18;94254.03;5053978;28;20051;-86
2022/08/15 00:32:53;;;;;;;4.43;3.80;;;;;;;23.59;54.94;94194.28;5055238;28;20090;-87
2022/08/15 00:35:37;;;;;;;4.00;3.53;;;;;;;23.42;55.04;94208.28;5073984;28;20040;-86
2022/08/15 00:38:15;;;;;;;4.32;3.90;;;;;;;24.34;54.71;94319.25;5045723;28;20021;-86
2022/08/15 00:43:27;;;;;;;4.53;3.45;;;;;;;24.15;55.13;94255.94;5063594;28;20554;-87
2022/08/15 00:45:52;;;;;;;5.25;4.45;;;;;;;23.56;55.15;94200.81;5058173;28;20071;-85
2022/08/15 00:51:03;;;;;;;5.78;4.85;;;;;;;24.30;54.87;94294.25;5064906;28;20055;-87
2022/08/15 00:53:28;;;;;;;5.20;4.50;;;;;;;23.90;54.93;94241.16;5052457;28;20035;-88
2022/08/15 00:55:54;;;;;;;4.50;4.07;;;;;;;22.41;54.49;94024.88;5047186;28;20063;-88
2022/08/15 00:58:20;;;;;;;5.28;4.35;;;;;;;24.15;54.51;94282.50;5056155;28;20035;-85
2022/08/15 01:00:46;;;;;;;6.22;4.60;;;;;;;23.03;54.47;94145.03;5045418;28;20036;-87
2022/08/15 01:03:21;;;;;;;5.63;4.68;;;;;;;24.10;54.82;94270.44;5073408;28;20047;-87
2022/08/15 01:05:49;;;;;;;5.68;4.70;;;;;;;22.53;54.90;94059.47;5074588;28;20044;-86
2022/08/15 01:08:16;;;;;;;5.28;4.32;;;;;;;22.42;54.80;94027.06;5070383;28;20075;-86
2022/08/15 01:10:42;;;;;;;5.93;4.78;;;;;;;23.47;55.03;94196.53;5054225;28;20031;-86
2022/08/15 01:13:08;;;;;;;5.47;4.30;;;;;;;22.36;54.65;94001.22;5057948;28;20555;-85
2022/08/15 01:15:35;;;;;;;5.13;4.40;;;;;;;23.73;54.60;94203.91;5058541;28;20165;-85
2022/08/15 01:18:01;;;;;;;5.70;4.95;;;;;;;23.19;54.25;94124.13;5055940;28;20557;-88
2022/08/15 01:20:28;;;;;;;5.05;4.55;;;;;;;22.47;54.92;94018.03;5064679;28;20036;-87
2022/08/15 01:23:13;;;;;;;6.28;5.15;;;;;;;23.67;54.65;94200.56;5057911;28;21160;-86
2022/08/15 01:25:44;;;;;;;6.20;5.47;;;;;;;23.06;54.54;94108.56;5077389;28;20093;-84
2022/08/15 01:28:37;;;;;;;6.70;5.72;;;;;;;22.54;54.13;94055.47;5066584;28;20040;-87
2022/08/15 01:31:06;;;;;;;5.15;4.65;;;;;;;24.03;54.91;94303.81;5050766;28;20075;-90
2022/08/15 01:33:35;;;;;;;6.20;5.03;;;;;;;22.73;54.50;94126.81;5044575;28;20048;-85
2022/08/15 01:36:01;;;;;;;6.50;5.77;;;;;;;24.02;54.55;94296.91;5054942;28;20047;-87
2022/08/15 01:38:35;;;;;;;6.20;4.90;;;;;;;22.02;54.49;94009.28;5049349;28;20040;-86
2022/08/15 01:41:23;;;;;;;5.22;4.70;;;;;;;23.63;55.00;94235.56;5034965;28;20020;-88
2022/08/15 01:44:08;;;;;;;5.95;5.18;;;;;;;23.63;54.95;94254.66;5076347;28;20027;-85
2022/08/15 01:46:39;;;;;;;6.15;5.30;;;;;;;22.84;54.52;94121.13;5070413;28;20394;-87
2022/08/15 01:49:15;;;;;;;6.63;5.07;;;;;;;22.93;55.01;94152.16;5046171;28;20044;-87
2022/08/15 01:51:41;;;;;;;6.03;5.43;;;;;;;23.98;54.90;94287.59;5052037;28;20044;-90
2022/08/15 01:54:10;;;;;;;5.32;4.82;;;;;;;23.78;54.96;94293.00;5061191;28;20063;-89
2022/08/15 01:56:38;;;;;;;6.60;5.53;;;;;;;22.45;54.33;94091.25;5060070;28;20048;-87
2022/08/15 01:59:05;;;;;;;6.80;5.63;;;;;;;24.00;54.89;94276.88;5070598;28;20127;-88
2022/08/15 02:01:42;;;;;;;6.20;5.07;;;;;;;23.65;55.28;94244.00;5072595;28;20024;-91
2022/08/15 02:04:07;;;;;;;5.88;5.10;;;;;;;22.39;54.47;94033.53;5064244;28;20113;-86
2022/08/15 02:06:33;;;;;;;5.78;5.18;;;;;;;23.69;54.91;94219.84;5074803;28;20044;-87
2022/08/15 02:09:01;;;;;;;6.97;5.70;;;;;;;23.94;54.46;94244.28;5072717;28;20032;-88
2022/08/15 02:11:29;;;;;;;6.05;5.43;;;;;;;23.81;54.88;94221.06;5073519;28;20040;-86
2022/08/15 02:13:56;;;;;;;6.05;5.45;;;;;;;23.88;54.56;94243.69;5056458;28;20078;-86
2022/08/15 02:16:30;;;;;;;6.95;6.20;;;;;;;23.30;54.34;94146.38;5054002;28;20507;-83
2022/08/15 02:18:57;;;;;;;7.47;5.75;;;;;;;22.97;54.37;94146.38;5072835;28;20059;-86
2022/08/15 02:21:22;;;;;;;7.38;5.65;;;;;;;23.32;54.70;94198.38;5073028;28;20044;-85
2022/08/15 02:23:48;;;;;;;7.10;6.18;;;;;;;23.40;54.54;94171.94;5057566;28;20048;-87
2022/08/15 02:26:14;;;;;;;7.65;5.97;;;;;;;22.38;54.39;94078.31;5052209;28;20048;-84
2022/08/15 02:28:40;;;;;;;8.68;6.40;;;;;;;23.35;54.74;94204.72;5070983;28;20672;-87
2022/08/15 02:31:10;;;;;;;7.32;6.10;;;;;;;22.61;54.33;94098.38;5048899;28;20048;-88
2022/08/15 02:33:36;;;;;;;8.30;6.60;;;;;;;23.69;54.90;94241.66;5055522;28;20036;-86
2022/08/15 02:36:01;;;;;;;7.28;6.57;;;;;;;22.13;54.77;94028.09;5058564;28;20054;-86
2022/08/15 02:38:27;;;;;;;7.35;6.28;;;;;;;23.89;55.06;94299.69;5056836;28;20433;-84
2022/08/15 02:40:53;;;;;;;7.63;6.70;;;;;;;23.63;54.53;94277.22;5057816;28;20028;-85
2022/08/15 02:43:19;;;;;;;8.15;6.25;;;;;;;22.66;54.63;94106.44;5072514;28;20027;-85
2022/08/15 02:45:47;;;;;;;7.57;6.47;;;;;;;22.34;54.99;94080.63;5081828;28;20059;-88
2022/08/15 02:48:13;;;;;;;8.73;6.88;;;;;;;22.83;54.72;94153.09;5056222;28;20058;-87
2022/08/15 02:50:39;;;;;;;8.18;6.93;;;;;;;23.19;54.89;94195.66;5054570;28;20052;-88
2022/08/15 02:53:11;;;;;;;8.57;6.70;;;;;;;22.40;54.88;94089.41;5052354;28;20027;-87
2022/08/15 02:55:42;;;;;;;8.00;6.38;;;;;;;24.01;55.14;94311.81;5062035;28;20041;-87
2022/08/15 02:58:09;;;;;;;9.25;6.90;;;;;;;23.86;54.91;94296.56;5070465;28;20039;-87
2022/08/15 03:00:35;;;;;;;7.63;6.78;;;;;;;22.32;54.54;94115.78;5058211;28;20145;-85
2022/08/15 03:03:06;;;;;;;8.77;7.05;;;;;;;23.93;54.76;94338.28;5051295;28;20538;-86
2022/08/15 03:05:32;;;;;;;8.60;7.07;;;;;;;23.80;55.28;94323.22;5053490;28;20081;-86
2022/08/15 03:07:57;;;;;;;7.80;7.00;;;;;;;23.79;54.92;94284.31;5072761;28;20016;-86
2022/08/15 03:10:23;;;;;;;8.32;7.20;;;;;;;24.14;54.89;94324.66;5055555;28;20035;-86
2022/08/15 03:12:53;;;;;;;8.55;7.32;;;;;;;23.58;54.88;94290.94;5050642;28;20573;-86
2022/08/15 03:15:21;;;;;;;10.18;7.60;;;;;;;21.99;54.87;94018.50;5037179;28;20079;-86
2022/08/15 03:17:46;;;;;;;9.32;7.82;;;;;;;23.84;54.98;94296.34;5049234;28;20063;-87
2022/08/15 03:20:12;;;;;;;8.30;7.40;;;;;;;23.87;54.48;94293.31;5041834;28;20052;-85
2022/08/15 03:22:45;;;;;;;8.60;7.63;;;;;;;23.85;54.51;94298.53;5072533;28;20461;-85
2022/08/15 03:25:11;;;;;;;9.48;7.50;;;;;;;24.11;54.62;94348.28;5063825;28;20067;-84
2022/08/15 03:27:36;;;;;;;8.82;7.63;;;;;;;23.20;54.76;94224.38;5035700;28;20526;-85
2022/08/15 03:30:04;;;;;;;8.70;7.38;;;;;;;24.19;54.60;94357.28;5054735;28;20040;-86
2022/08/15 03:32:29;;;;;;;9.07;8.18;;;;;;;24.13;54.73;94351.22;5054473;28;20056;-89
2022/08/15 03:34:55;;;;;;;9.02;7.72;;;;;;;23.83;54.39;94306.53;5054580;28;20618;-84
2022/08/15 03:37:20;;;;;;;8.90;8.00;;;;;;;23.73;54.64;94296.59;5044584;28;20028;-88
2022/08/15 03:39:46;;;;;;;10.23;7.80;;;;;;;23.63;54.61;94271.00;5051849;28;20555;-84
2022/08/15 03:42:11;;;;;;;8.85;7.72;;;;;;;23.70;54.36;94303.09;5067348;28;20094;-85
2022/08/15 03:44:37;;;;;;;9.10;8.13;;;;;;;22.58;54.40;94121.91;5069269;28;20052;-87
2022/08/15 03:47:03;;;;;;;9.02;7.82;;;;;;;23.68;54.12;94278.38;5066241;28;20100;-86
2022/08/15 03:49:28;;;;;;;10.55;8.93;;;;;;;23.32;53.48;94214.72;5071586;28;20063;-87
2022/08/15 03:51:54;;;;;;;10.02;8.50;;;;;;;23.18;53.66;94215.25;5057307;28;20062;-85
2022/08/15 03:54:19;;;;;;;9.57;8.10;;;;;;;23.57;54.31;94262.22;5070726;28;20047;-86
2022/08/15 03:56:45;;;;;;;10.00;8.82;;;;;;;23.06;54.18;94209.31;5067804;28;20060;-86
2022/08/15 03:59:10;;;;;;;10.85;8.90;;;;;;;22.42;53.22;94108.66;5050607;28;20411;-86
2022/08/15 04:01:37;;;;;;;11.05;9.18;;;;;;;23.64;54.31;94294.31;5054633;28;20077;-87
2022/08/15 04:04:04;;;;;;;9.93;8.48;;;;;;;23.86;54.53;94315.66;5043601;28;20048;-85
2022/08/15 04:06:32;;;;;;;10.30;9.15;;;;;;;23.12;54.07;94201.78;5054948;28;20044;-86
2022/08/15 04:08:59;;;;;;;11.30;10.00;;;;;;;24.29;53.83;94369.22;5057722;28;20525;-84
2022/08/15 04:11:28;;;;;;;10.20;9.10;;;;;;;24.29;53.88;94368.47;5054574;28;20769;-87
2022/08/15 04:13:54;;;;;;;10.30;9.20;;;;;;;22.55;53.58;94116.78;5071862;28;20028;-85
2022/08/15 04:16:20;;;;;;;11.73;9.40;;;;;;;24.23;54.21;94387.72;5054422;28;20420;-85
2022/08/15 04:18:46;;;;;;;10.55;9.00;;;;;;;24.12;54.27;94355.19;5051309;28;20066;-84
2022/08/15 04:21:12;;;;;;;10.57;9.48;;;;;;;24.42;53.57;94371.91;5051431;28;20037;-86
2022/08/15 04:23:39;;;;;;;11.85;10.25;;;;;;;22.49;53.58;94102.56;5045495;28;20047;-86
2022/08/15 04:26:04;;;;;;;12.82;9.93;;;;;;;24.43;54.02;94362.47;5052470;28;20126;-89
2022/08/15 04:28:30;;;;;;;11.73;10.07;;;;;;;23.94;53.89;94290.63;5062128;28;20055;-85
2022/08/15 04:30:56;;;;;;;12.27;10.52;;;;;;;23.82;53.54;94293.44;5044271;28;20068;-87
2022/08/15 04:33:23;;;;;;;11.73;10.27;;;;;;;22.69;53.46;94101.91;5049666;28;20581;-86
2022/08/15 04:35:54;;;;;;;11.15;9.90;;;;;;;24.48;54.19;94347.94;5051276;28;20044;-86
2022/08/15 04:38:19;;;;;;;13.73;11.10;;;;;;;24.49;54.01;94366.53;5081925;28;20143;-87
2022/08/15 04:40:45;;;;;;;13.15;10.88;;;;;;;24.63;53.75;94348.09;5052213;28;20100;-93
2022/08/15 04:43:11;;;;;;;12.95;10.98;;;;;;;23.69;53.18;94198.03;5050810;28;20098;-88
2022/08/15 04:45:38;;;;;;;14.02;11.82;;;;;;;24.51;52.76;94295.03;5056025;28;20028;-92
2022/08/15 04:48:04;;;;;;;14.10;11.13;;;;;;;24.39;51.70;94231.06;5053443;28;20055;-90
2022/08/15 04:50:31;;;;;;;14.65;12.05;;;;;;;24.72;51.45;94279.34;5048619;28;20137;-92
2022/08/15 04:52:56;;;;;;;14.55;11.20;;;;;;;24.47;51.50;94248.25;5073257;28;20113;-91
2022/08/15 04:56:09;;;;;;;16.35;12.95;;;;;;;25.09;51.97;94356.84;5065052;23;20529;-85
2022/08/15 04:58:34;;;;;;;15.98;12.50;;;;;;;25.31;51.97;94356.28;5065191;22;20047;-67
2022/08/15 05:01:02;;;;;;;16.08;13.05;;;;;;;24.88;52.86;94358.84;5065439;28;20040;-56
2022/08/15 05:03:28;;;;;;;17.30;13.95;;;;;;;24.21;52.79;94277.63;5094320;28;20024;-54
2022/08/15 05:05:59;;;;;;;16.23;13.48;;;;;;;24.88;52.92;94369.78;5090314;28;20024;-55
2022/08/15 05:08:25;;;;;;;15.90;13.68;;;;;;;24.75;53.20;94365.66;5089279;28;20078;-56
2022/08/15 05:10:59;;;;;;;17.65;14.25;;;;;;;24.76;53.44;94362.41;5083031;28;20032;-55
2022/08/15 05:13:27;;;;;;;16.63;13.48;;;;;;;24.94;53.01;94356.72;5082840;28;20048;-55
2022/08/15 05:15:53;;;;;;;17.48;13.95;;;;;;;25.10;52.59;94331.00;5097573;28;20028;-54
2022/08/15 05:18:18;;;;;;;17.25;14.02;;;;;;;25.30;52.21;94351.34;5072358;28;20063;-55
2022/08/15 05:20:44;;;;;;;17.27;13.80;;;;;;;25.22;52.30;94354.03;5083506;28;20494;-55
2022/08/15 05:23:11;;;;;;;16.85;14.10;;;;;;;25.41;51.80;94346.31;5085564;28;20070;-54
2022/08/15 05:25:40;;;;;;;17.92;14.63;;;;;;;25.23;52.17;94344.59;5095550;28;20766;-56
2022/08/15 05:28:06;;;;;;;17.02;14.05;;;;;;;25.21;52.52;94341.63;5098641;28;20680;-55
2022/08/15 05:30:32;;;;;;;20.23;15.20;;;;;;;25.08;52.78;94349.94;5103180;28;20027;-55
2022/08/15 05:33:25;;;;;;;17.35;14.25;;;;;;;25.02;52.86;94352.09;5091668;28;20036;-54
2022/08/15 05:35:57;;;;;;;16.13;13.52;;;;;;;25.21;52.60;94344.38;5093918;22;20052;-54
2022/08/15 05:38:26;;;;;;;17.98;14.57;;;;;;;25.54;51.57;94346.19;5063843;28;20119;-53
2022/08/15 05:41:00;;;;;;;16.33;13.70;;;;;;;25.50;51.96;94352.03;5063106;28;20037;-55
2022/08/15 05:43:56;;;;;;;18.88;14.70;;;;;;;25.42;52.22;94353.97;5061623;28;20447;-55
2022/08/15 05:46:44;;;;;;;18.88;14.98;;;;;;;25.64;51.40;94349.91;5061010;28;20450;-56
2022/08/15 05:49:44;;;;;;;19.65;14.43;;;;;;;25.48;52.04;94360.00;5060528;28;20044;-56
2022/08/15 05:52:15;;;;;;;19.27;15.25;;;;;;;25.50;51.74;94362.22;5062812;28;20548;-54
2022/08/15 05:54:57;;;;;;;17.88;15.38;;;;;;;25.62;51.30;94363.38;5061167;28;20074;-53
2022/08/15 05:57:27;;;;;;;19.67;15.60;;;;;;;25.57;51.40;94356.78;5060286;28;20133;-53
2022/08/15 05:59:55;;;;;;;18.45;15.05;;;;;;;25.46;51.77;94367.31;5075323;28;20130;-55
2022/08/15 06:02:31;;;;;;;19.83;15.75;;;;;;;25.48;51.40;94370.94;5061528;28;20040;-53
2022/08/15 06:05:08;;;;;;;17.58;14.93;;;;;;;25.48;51.64;94340.16;5057505;28;20045;-55
2022/08/15 06:07:33;;;;;;;18.63;15.02;;;;;;;25.76;50.99;94356.56;5058867;28;20082;-52
2022/08/15 06:10:03;;;;;;;19.40;15.63;;;;;;;25.73;50.97;94360.38;5054344;28;20060;-55
2022/08/15 06:12:39;;;;;;;18.85;15.77;;;;;;;25.53;51.24;94355.66;5047568;28;20044;-55
2022/08/15 06:15:15;;;;;;;18.52;15.02;;;;;;;25.60;50.78;94335.84;5069320;28;20071;-54
2022/08/15 06:17:42;;;;;;;19.02;14.70;;;;;;;25.16;52.66;94356.19;5076454;28;20036;-54
2022/08/15 06:20:10;;;;;;;19.80;16.48;;;;;;;25.27;52.16;94361.34;5059213;28;20060;-53
2022/08/15 06:22:56;;;;;;;19.55;15.60;;;;;;;25.36;51.87;94352.66;5043751;28;20039;-54
2022/08/15 06:25:24;;;;;;;18.50;15.15;;;;;;;25.72;51.16;94361.63;5060288;28;20060;-54
2022/08/15 06:28:22;;;;;;;16.83;14.70;;;;;;;26.26;50.00;94354.53;5059914;28;20017;-52
2022/08/15 06:31:11;;;;;;;18.20;15.43;;;;;;;26.48;49.42;94359.34;5057938;28;20067;-54
2022/08/15 06:33:44;;;;;;;16.10;14.00;;;;;;;26.22;50.21;94362.38;5052727;28;20051;-55
2022/08/15 06:36:30;;;;;;;18.58;15.38;;;;;;;26.37;49.87;94362.44;5023830;28;20129;-53
2022/08/15 06:39:06;;;;;;;16.70;14.50;;;;;;;26.37;49.79;94362.44;5032622;28;20083;-52
2022/08/15 06:41:58;;;;;;;16.30;14.43;;;;;;;26.42;49.90;94367.75;5037564;28;20034;-53
2022/08/15 06:44:23;;;;;;;17.70;15.73;;;;;;;26.33;50.22;94364.81;5011028;28;20156;-52
2022/08/15 06:46:49;;;;;;;18.05;15.18;;;;;;;26.28;49.80;94357.50;5047753;28;20194;-56
2022/08/15 06:49:16;;;;;;;16.73;14.77;;;;;;;26.21;50.85;94385.53;5024197;28;20047;-55
2022/08/15 06:51:42;;;;;;;16.35;14.32;;;;;;;26.26;50.42;94384.63;5025631;28;20491;-55
2022/08/15 06:54:14;;;;;;;17.35;15.13;;;;;;;26.12;50.85;94377.84;5050298;28;20070;-54
2022/08/15 06:56:50;;;;;;;18.42;15.20;;;;;;;25.98;51.24;94373.78;5035521;28;20033;-55
2022/08/15 06:59:21;;;;;;;18.48;15.25;;;;;;;25.94;50.84;94378.88;5044078;28;20036;-57
2022/08/15 07:02:32;;;;;;;19.60;16.30;;;;;;;26.04;51.17;94381.84;5054957;28;20082;-56
2022/08/15 07:05:22;;;;;;;17.55;13.88;;;;;;;26.13;50.93;94393.00;5020355;28;20754;-53
2022/08/15 07:08:00;;;;;;;18.35;15.25;;;;;;;25.87;51.58;94385.06;5041794;28;20036;-55
2022/08/15 07:10:45;;;;;;;17.17;15.00;;;;;;;25.86;51.52;94383.59;5043389;28;20518;-55
2022/08/15 07:13:16;;;;;;;17.33;15.10;;;;;;;25.24;51.50;94299.56;5035547;28;20063;-54
2022/08/15 07:16:07;;;;;;;16.08;13.82;;;;;;;25.87;51.66;94385.06;5056998;28;20036;-56
2022/08/15 07:18:35;;;;;;;17.00;15.10;;;;;;;25.82;51.80;94383.19;5050912;28;20017;-55
2022/08/15 07:21:05;;;;;;;18.95;15.55;;;;;;;25.79;51.88;94388.31;5035769;28;20734;-53
2022/08/15 07:23:31;;;;;;;;;;;;;;;25.64;52.13;94380.75;5051741;28;20190;-54
2022/08/15 07:26:02;;;;;;;19.55;15.95;;;;;;;25.59;52.36;94364.44;5046945;28;19924;-56
2022/08/15 07:28:28;;;;;;;18.80;15.98;;;;;;;25.67;52.08;94382.41;5043569;28;20778;-55
2022/08/15 07:30:54;;;;;;;18.40;15.70;;;;;;;25.70;52.13;94377.88;5052713;28;20020;-56
2022/08/15 07:33:57;;;;;;;21.08;16.15;;;;;;;25.92;51.60;94375.97;5058389;28;20089;-53
2022/08/15 07:36:28;;;;;;;20.52;16.15;;;;;;;25.77;51.37;94393.56;5048655;28;20732;-59
2022/08/15 07:38:54;;;;;;;20.45;16.35;;;;;;;25.79;51.58;94377.38;5050273;28;20025;-55
2022/08/15 07:41:29;;;;;;;21.35;16.77;;;;;;;25.91;51.89;94390.91;5044125;28;20070;-55
2022/08/15 07:44:16;;;;;;;21.20;17.70;;;;;;;25.70;52.71;94391.53;5045192;28;20099;-53
2022/08/15 07:46:44;;;;;;;20.17;17.17;;;;;;;25.55;53.22;94381.22;5051110;28;20036;-54
2022/08/15 07:49:34;;;;;;;20.38;16.65;;;;;;;25.57;53.59;94388.88;5038700;28;20086;-56
2022/08/15 07:52:15;;;;;;;19.33;16.33;;;;;;;25.74;53.19;94397.38;5044218;28;20101;-54
2022/08/15 07:54:46;;;;;;;21.17;16.55;;;;;;;25.71;52.81;94384.78;5056091;28;20027;-53
2022/08/15 07:57:25;;;;;;;21.83;16.45;;;;;;;25.81;52.47;94400.91;5055351;28;20028;-54
2022/08/15 08:00:21;;;;;;;19.95;16.63;;;;;;;25.50;53.05;94381.34;5050723;28;20693;-53
2022/08/15 08:02:46;;;;;;;26.55;17.08;;;;;;;25.53;53.16;94399.41;5057200;28;20033;-54
2022/08/15 08:05:12;;;;;;;21.55;17.45;;;;;;;25.56;52.90;94388.16;5056339;28;20039;-55
2022/08/15 08:07:42;;;;;;;20.33;16.65;;;;;;;25.74;52.32;94402.84;5057072;28;20028;-56
2022/08/15 08:10:26;;;;;;;21.15;16.48;;;;;;;25.75;52.32;94409.78;5032207;28;20105;-53
2022/08/15 08:13:20;;;;;;;19.45;15.32;;;;;;;25.60;52.82;94404.22;5039281;28;20027;-53
2022/08/15 08:15:57;;;;;;;21.08;16.40;;;;;;;25.63;52.77;94408.59;5036556;28;20029;-54
2022/08/15 08:19:02;;;;;;;19.92;16.33;;;;;;;25.65;52.92;94422.50;5057374;28;20029;-53
2022/08/15 08:21:40;;;;;;;19.48;16.05;;;;;;;25.55;52.87;94402.38;5043628;28;20060;-56
2022/08/15 08:24:46;;;;;;;19.92;15.93;;;;;;;25.61;52.74;94394.75;5042516;28;20048;-56
2022/08/15 08:27:41;;;;;;;20.52;15.82;;;;;;;25.55;53.44;94407.84;5053499;28;20033;-54
2022/08/15 08:30:12;;;;;;;18.60;15.15;;;;;;;25.46;53.07;94378.25;5021425;28;20053;-54
2022/08/15 08:32:47;;;;;;;20.27;15.50;;;;;;;25.70;52.97;94407.94;5056883;28;20040;-53
2022/08/15 08:35:15;;;;;;;20.13;16.60;;;;;;;25.68;52.88;94399.53;5063647;28;20052;-56
2022/08/15 08:38:15;;;;;;;18.77;15.90;;;;;;;25.65;52.96;94400.59;5061315;28;20453;-53
2022/08/15 08:41:34;;;;;;;17.80;15.13;;;;;;;25.78;52.60;94403.25;5073728;28;20772;-55
2022/08/15 08:44:06;;;;;;;17.48;15.57;;;;;;;25.72;52.88;94399.94;5060856;28;20545;-54
2022/08/15 08:46:37;;;;;;;17.85;14.98;;;;;;;25.78;52.70;94403.25;5073512;28;20461;-54
2022/08/15 08:49:21;;;;;;;20.08;15.68;;;;;;;25.57;52.90;94372.47;5065384;28;20500;-54
2022/08/15 08:52:09;;;;;;;19.98;15.68;;;;;;;25.68;52.92;94399.53;5033402;28;20569;-54
2022/08/15 08:54:53;;;;;;;18.48;15.23;;;;;;;25.71;52.63;94395.72;5041616;28;20116;-54
2022/08/15 08:57:20;;;;;;;19.33;15.57;;;;;;;25.53;52.61;94361.13;5056340;28;20040;-53
2022/08/15 08:59:50;;;;;;;19.65;16.27;;;;;;;25.70;52.17;94397.00;5049372;28;20574;-54
2022/08/15 09:02:20;;;;;;;20.55;16.00;;;;;;;25.67;52.64;94376.22;5042992;28;20054;-54
2022/08/15 09:04:51;;;;;;;19.10;16.27;;;;;;;25.63;53.18;94373.06;5059488;28;20037;-54
2022/08/15 09:07:20;;;;;;;20.65;16.13;;;;;;;25.71;52.70;94360.16;5059055;28;20055;-54
2022/08/15 09:09:45;;;;;;;17.43;15.07;;;;;;;25.95;53.04;94379.63;5044839;28;20035;-56
2022/08/15 09:15:19;;;;;;;19.05;15.95;;;;;;;26.16;52.15;94372.75;5055702;28;20110;-54
2022/08/15 09:18:03;;;;;;;18.70;14.85;;;;;;;25.64;51.35;94273.34;5031844;28;20789;-55
2022/08/15 09:20:33;;;;;;;17.38;15.57;;;;;;;26.29;49.84;94354.22;5049988;28;20490;-52
2022/08/15 09:23:00;;;;;;;17.80;15.57;;;;;;;26.45;49.62;94374.88;5028526;28;20049;-53
2022/08/15 09:25:25;;;;;;;17.55;15.60;;;;;;;26.55;49.26;94366.88;5043779;28;20051;-54
2022/08/15 09:27:55;;;;;;;20.65;15.80;;;;;;;26.83;48.61;94372.91;5028599;28;20427;-53
2022/08/15 09:30:21;;;;;;;17.50;15.35;;;;;;;26.82;48.88;94361.22;5063100;28;20036;-54
2022/08/15 09:32:54;;;;;;;17.73;15.18;;;;;;;26.85;48.85;94365.59;5060194;28;20036;-54
2022/08/15 09:35:22;;;;;;;18.05;15.77;;;;;;;27.13;48.62;94373.69;5060527;28;20071;-53
2022/08/15 09:38:15;;;;;;;34.45;17.17;;;;;;;27.17;47.91;94367.81;5064212;28;20691;-54
2022/08/15 09:41:02;;;;;;;25.67;16.20;;;;;;;27.31;48.03;94375.31;5045236;28;20152;-54
2022/08/15 09:43:30;;;;;;;18.75;15.07;;;;;;;27.19;47.75;94371.50;5052760;28;20043;-54
2022/08/15 09:46:35;;;;;;;17.23;13.90;;;;;;;27.26;48.42;94376.22;5053098;28;20208;-55
2022/08/15 09:49:28;;;;;;;21.17;14.98;;;;;;;27.38;47.92;94360.84;5053824;28;20047;-56
2022/08/15 09:51:59;;;;;;;20.27;14.88;;;;;;;27.35;48.77;94364.69;5058417;28;20499;-55
2022/08/15 09:54:29;;;;;;;18.60;14.75;;;;;;;27.42;48.47;94361.22;5059917;28;20021;-53
2022/08/15 09:57:19;;;;;;;21.63;15.00;;;;;;;27.40;48.88;94358.31;5074428;28;20040;-55
2022/08/15 09:59:55;;;;;;;17.25;14.10;;;;;;;26.95;48.01;94276.13;5060202;28;20044;-53
2022/08/15 10:02:22;;;;;;;19.20;14.95;;;;;;;27.51;48.51;94363.41;5046420;28;20041;-54
2022/08/15 10:04:48;;;;;;;16.98;14.10;;;;;;;27.59;48.53;94353.16;5047340;28;20032;-54
2022/08/15 10:07:13;;;;;;;19.85;13.77;;;;;;;27.69;48.37;94367.78;5047928;28;20049;-55
2022/08/15 10:10:00;;;;;;;16.83;13.95;;;;;;;27.53;48.61;94366.34;5041280;28;20164;-55
2022/08/15 10:12:26;;;;;;;17.25;14.68;;;;;;;27.51;48.77;94349.72;5065637;28;20103;-55
2022/08/15 10:14:51;;;;;;;15.27;13.40;;;;;;;27.65;47.95;94356.44;5060105;28;20538;-53
2022/08/15 10:17:33;;;;;;;17.63;13.65;;;;;;;27.75;48.39;94356.03;5061191;28;20507;-53
2022/08/15 10:20:16;;;;;;;17.40;14.02;;;;;;;27.75;48.41;94350.53;5057454;28;20036;-55
2022/08/15 10:22:54;;;;;;;16.27;13.90;;;;;;;27.87;47.67;94350.88;5072502;28;20052;-55
2022/08/15 10:25:22;;;;;;;15.77;13.80;;;;;;;27.87;47.43;94348.84;5058545;28;20109;-54
2022/08/15 10:28:18;;;;;;;19.02;15.15;;;;;;;27.85;48.05;94342.47;5063898;28;20048;-56
2022/08/15 10:31:05;;;;;;;15.50;13.57;;;;;;;27.99;47.63;94340.94;5054582;28;20487;-54
2022/08/15 10:33:30;;;;;;;14.55;12.45;;;;;;;27.75;48.01;94339.56;5050698;28;20033;-56
2022/08/15 10:36:05;;;;;;;15.75;12.77;;;;;;;27.80;48.00;94352.38;5059960;28;20063;-54
2022/08/15 10:38:30;;;;;;;14.77;12.60;;;;;;;27.72;47.34;94320.00;5056968;28;20033;-54
2022/08/15 10:40:58;;;;;;;12.95;11.55;;;;;;;27.92;47.48;94342.44;5043626;28;20047;-55
2022/08/15 10:43:40;;;;;;;12.73;11.43;;;;;;;28.32;46.26;94335.66;5059163;28;20131;-55
2022/08/15 10:46:38;;;;;;;15.63;11.57;;;;;;;28.52;45.69;94342.13;5043563;28;20044;-54
2022/08/15 10:49:08;;;;;;;13.90;11.73;;;;;;;28.42;46.05;94341.28;5042311;28;20037;-53
2022/08/15 10:51:47;;;;;;;;;;;;;;;28.36;45.97;94335.28;5058242;28;20845;-53
2022/08/15 10:54:12;;;;;;;11.40;10.20;;;;;;;28.25;45.65;94332.94;5057813;28;20393;-53
2022/08/15 10:56:39;;;;;;;12.93;11.00;;;;;;;28.28;45.98;94334.59;5057465;28;20063;-53
2022/08/15 10:59:14;;;;;;;11.57;10.25;;;;;;;28.22;45.22;94298.41;5060442;28;20032;-52
2022/08/15 11:01:40;;;;;;;15.82;11.02;;;;;;;28.30;45.97;94326.53;5047466;28;20326;-54
2022/08/15 11:04:08;;;;;;;12.43;11.13;;;;;;;28.25;45.42;94335.69;5059470;28;21977;-55
2022/08/15 11:06:45;;;;;;;12.63;10.18;;;;;;;28.24;46.20;94334.97;5058168;28;20768;-53
2022/08/15 11:09:13;;;;;;;11.80;10.40;;;;;;;28.01;45.65;94289.69;5076643;22;20091;-86
2022/08/15 11:11:57;;;;;;;11.65;10.45;;;;;;;27.77;46.05;94287.63;5077663;28;20133;-86
2022/08/15 11:14:38;;;;;;;13.85;10.35;;;;;;;27.94;46.34;94317.91;5038142;28;20033;-85
2022/08/15 11:17:05;;;;;;;11.02;9.93;;;;;;;28.06;46.09;94335.41;5054023;28;20056;-85
2022/08/15 11:19:38;;;;;;;12.13;10.45;;;;;;;27.93;46.61;94330.16;5054231;28;20036;-83
2022/08/15 11:22:07;;;;;;;11.20;10.10;;;;;;;27.82;46.10;94289.41;5050772;28;20072;-82
2022/08/15 11:24:37;;;;;;;;;;;;;;;27.75;46.55;94333.34;5052293;28;20017;-82
2022/08/15 11:27:08;;;;;;;;;;;;;;;27.62;47.14;94324.59;5069648;28;19920;-82
2022/08/15 11:29:33;;;;;;;11.00;9.80;;;;;;;27.76;46.93;94319.06;5067334;28;19995;-82
2022/08/15 11:31:59;;;;;;;12.18;10.07;;;;;;;27.43;46.82;94302.34;5052088;28;20550;-83
2022/08/15 11:34:40;;;;;;;10.77;9.68;;;;;;;27.49;47.33;94322.06;5068239;28;20143;-83
2022/08/15 11:37:12;;;;;;;10.73;9.68;;;;;;;27.39;47.70;94307.47;5052835;28;20468;-83
2022/08/15 11:40:00;;;;;;;10.25;9.15;;;;;;;27.41;47.21;94310.38;5069353;28;20088;-83
2022/08/15 11:42:29;;;;;;;11.73;9.10;;;;;;;27.04;47.78;94259.13;5048788;28;20059;-82
2022/08/15 11:45:04;;;;;;;11.00;9.82;;;;;;;27.32;48.02;94319.19;5050720;28;20036;-83
2022/08/15 11:47:31;;;;;;;9.98;8.88;;;;;;;27.24;47.83;94308.22;5069148;28;20029;-83
2022/08/15 11:50:05;;;;;;;10.55;9.52;;;;;;;26.43;47.23;94171.34;5070095;28;20040;-82
2022/08/15 11:52:33;;;;;;;10.82;9.73;;;;;;;27.32;48.00;94308.22;5067636;28;20127;-83
2022/08/15 11:55:30;;;;;;;10.15;9.13;;;;;;;27.29;47.47;94298.34;5035656;28;20025;-83
2022/08/15 11:58:05;;;;;;;11.23;9.00;;;;;;;26.93;47.32;94256.75;5060202;28;20051;-82